Time;durP1;ratioP1;P1;durP2;ratioP2;P2;SDS_P1;SDS_P2;PMS_P1;PMS_P2;Temp;Humidity;BMP_temperature;BMP_pressure;BME280_temperature;BME280_humidity;BME280_pressure;Samples;Min_cycle;Max_cycle;Signal;HPM_P1;HPM_P2
2022/12/23 00:00:42;;;;;;;8.47;5.43;;;;;;;-142.25;100.00;58004.16;4961783;28;20053;-67
2022/12/23 00:03:07;;;;;;;9.70;5.33;;;;;;;-142.25;100.00;58004.16;4967988;28;20410;-67
2022/12/23 00:05:39;;;;;;;10.17;4.87;;;;;;;-142.25;100.00;58004.16;4967808;28;20109;-64
2022/12/23 00:08:06;;;;;;;9.50;5.40;;;;;;;-142.25;100.00;58004.16;4964797;28;20145;-64
2022/12/23 00:10:33;;;;;;;8.60;4.73;;;;;;;-142.25;100.00;58004.16;4964087;28;20043;-67
2022/12/23 00:15:43;;;;;;;8.87;5.10;;;;;;;-142.25;100.00;58004.16;4961013;28;20555;-67
2022/12/23 00:18:09;;;;;;;11.17;6.53;;;;;;;-142.25;100.00;58004.16;4962423;28;20038;-67
2022/12/23 00:20:35;;;;;;;10.70;6.70;;;;;;;-142.25;100.00;58004.16;4963401;28;20054;-66
2022/12/23 00:23:03;;;;;;;7.67;5.27;;;;;;;-142.25;100.00;58004.16;4965950;28;20497;-66
2022/12/23 00:25:39;;;;;;;7.53;6.20;;;;;;;-142.25;100.00;58004.16;4963924;28;20039;-67
2022/12/23 00:28:10;;;;;;;;;;;;;;;-142.25;100.00;58004.16;4965104;28;20043;-66
2022/12/23 00:30:53;;;;;;;12.00;5.53;;;;;;;-142.25;100.00;58004.16;4964243;28;19921;-66
2022/12/23 00:33:22;;;;;;;11.87;6.60;;;;;;;-142.25;100.00;58004.16;4965205;28;20031;-65
2022/12/23 00:35:48;;;;;;;16.20;8.40;;;;;;;-142.25;100.00;58004.16;4965203;28;20402;-66
2022/12/23 00:38:14;;;;;;;17.37;9.53;;;;;;;-142.25;100.00;58004.16;4962268;28;20084;-66
2022/12/23 00:43:25;;;;;;;21.70;10.40;;;;;;;-142.25;100.00;58004.16;4965711;28;20053;-68
2022/12/23 00:45:50;;;;;;;22.83;9.87;;;;;;;-142.25;100.00;58004.16;4969363;28;20043;-66
2022/12/23 00:51:00;;;;;;;17.23;9.57;;;;;;;-142.25;100.00;58004.16;4965107;28;20039;-67
2022/12/23 00:53:26;;;;;;;17.73;10.53;;;;;;;-142.25;100.00;58004.16;4966224;28;20057;-67
2022/12/23 00:55:52;;;;;;;18.63;12.50;;;;;;;-142.25;100.00;58004.16;4963812;28;20404;-67
2022/12/23 00:58:19;;;;;;;21.10;11.63;;;;;;;-142.25;100.00;58004.16;4963094;28;20650;-67
2022/12/23 01:06:15;;;;;;;30.73;14.03;;;;;;;-142.25;100.00;58004.16;4968007;28;20507;-69
2022/12/23 01:08:42;;;;;;;22.30;13.63;;;;;;;-142.25;100.00;58004.16;4969698;28;20050;-67
2022/12/23 01:11:10;;;;;;;21.30;13.43;;;;;;;-142.25;100.00;58004.16;4964038;28;20093;-67
2022/12/23 01:13:36;;;;;;;22.60;13.00;;;;;;;-142.25;100.00;58004.16;4981033;28;20054;-67
2022/12/23 01:16:08;;;;;;;24.17;13.00;;;;;;;-142.25;100.00;58004.16;4961618;28;20520;-67
2022/12/23 01:18:34;;;;;;;19.37;12.30;;;;;;;-142.25;100.00;58004.16;4965694;28;20043;-68
2022/12/23 01:21:02;;;;;;;25.83;12.10;;;;;;;-142.25;100.00;58004.16;4970379;28;20050;-67
2022/12/23 01:23:28;;;;;;;28.40;13.47;;;;;;;-142.25;100.00;58004.16;4975093;28;20453;-67
2022/12/23 01:25:58;;;;;;;18.67;12.40;;;;;;;-142.25;100.00;58004.16;4965104;28;20070;-67
2022/12/23 01:28:24;;;;;;;29.10;14.83;;;;;;;-142.25;100.00;58004.16;4965426;28;20051;-66
2022/12/23 01:30:50;;;;;;;17.20;12.57;;;;;;;-142.25;100.00;58004.16;4966359;28;20050;-68
2022/12/23 01:33:16;;;;;;;30.10;15.10;;;;;;;-142.25;100.00;58004.16;4965405;28;20595;-67
2022/12/23 01:35:41;;;;;;;24.83;14.70;;;;;;;-142.25;100.00;58004.16;4965879;28;20051;-68
2022/12/23 01:38:07;;;;;;;25.27;16.73;;;;;;;-142.25;100.00;58004.16;4963215;28;20501;-68
2022/12/23 01:40:35;;;;;;;20.47;13.23;;;;;;;-142.25;100.00;58004.16;4962865;28;20059;-67
2022/12/23 01:43:01;;;;;;;20.57;10.57;;;;;;;-142.25;100.00;58004.16;4965091;28;20416;-68
2022/12/23 01:45:31;;;;;;;14.63;10.03;;;;;;;-142.25;100.00;58004.16;4964328;28;20502;-67
2022/12/23 01:48:03;;;;;;;18.77;10.37;;;;;;;-142.25;100.00;58004.16;4969819;28;20058;-67
2022/12/23 01:50:37;;;;;;;17.97;9.93;;;;;;;-142.25;100.00;58004.16;4965455;28;20068;-67
2022/12/23 01:53:31;;;;;;;22.03;7.80;;;;;;;-142.25;100.00;58004.16;4963395;28;20094;-67
2022/12/23 01:56:29;;;;;;;14.90;6.40;;;;;;;-142.25;100.00;58004.16;4965132;28;20081;-67
2022/12/23 01:59:00;;;;;;;20.17;7.50;;;;;;;-142.25;100.00;58004.16;4962687;28;20073;-67
2022/12/23 02:04:16;;;;;;;18.48;8.60;;;;;;;-142.25;100.00;58004.16;4961512;28;21068;-66
2022/12/23 02:09:37;;;;;;;16.87;7.67;;;;;;;-142.25;100.00;58004.16;4960062;28;20565;-67
2022/12/23 02:12:12;;;;;;;13.70;6.10;;;;;;;-142.25;100.00;58004.16;4962481;28;20465;-67
2022/12/23 02:18:27;;;;;;;13.43;6.82;;;;;;;-142.25;100.00;58004.16;4960440;28;20042;-68
2022/12/23 02:21:01;;;;;;;14.57;6.67;;;;;;;-142.25;100.00;58004.16;4943480;28;20087;-66
2022/12/23 02:23:48;;;;;;;14.73;6.95;;;;;;;-142.25;100.00;58004.16;4938698;28;20242;-66
2022/12/23 02:26:55;;;;;;;18.10;7.40;;;;;;;-142.25;100.00;58004.16;4939501;28;20060;-66
2022/12/23 02:29:52;;;;;;;25.50;9.77;;;;;;;-142.25;100.00;58004.16;4941397;28;20535;-66
2022/12/23 02:32:49;;;;;;;21.73;8.07;;;;;;;-142.25;100.00;58004.16;4939100;28;20051;-65
2022/12/23 02:35:32;;;;;;;19.67;8.47;;;;;;;-142.25;100.00;58004.16;4942269;28;20633;-66
2022/12/23 02:38:09;;;;;;;22.10;7.60;;;;;;;-142.25;100.00;58004.16;4938781;28;20062;-67
2022/12/23 02:40:50;;;;;;;20.13;8.63;;;;;;;-142.25;100.00;58004.16;4941703;28;20051;-66
2022/12/23 02:43:36;;;;;;;21.20;6.03;;;;;;;-142.25;100.00;58004.16;4939178;28;20058;-66
2022/12/23 02:46:30;;;;;;;14.83;5.63;;;;;;;-142.25;100.00;58004.16;4940128;28;20170;-67
2022/12/23 02:49:04;;;;;;;14.77;4.53;;;;;;;-142.25;100.00;58004.16;4941481;28;20130;-66
2022/12/23 02:51:35;;;;;;;13.90;4.80;;;;;;;-142.25;100.00;58004.16;4940493;28;20082;-66
2022/12/23 02:54:04;;;;;;;15.03;5.83;;;;;;;-142.25;100.00;58004.16;4939461;28;20959;-67
2022/12/23 02:56:32;;;;;;;11.57;4.73;;;;;;;-142.25;100.00;58004.16;4943333;28;20320;-66
2022/12/23 02:59:00;;;;;;;20.00;7.23;;;;;;;-142.25;100.00;58004.16;4962564;28;20138;-66
2022/12/23 03:01:30;;;;;;;10.30;5.80;;;;;;;-142.25;100.00;58004.16;4962618;28;20446;-67
2022/12/23 03:03:56;;;;;;;14.77;6.50;;;;;;;-142.25;100.00;58004.16;4960927;28;20133;-68
2022/12/23 03:06:30;;;;;;;11.00;6.07;;;;;;;-142.25;100.00;58004.16;4959480;28;20112;-68
2022/12/23 03:08:58;;;;;;;9.30;6.20;;;;;;;-142.25;100.00;58004.16;4959559;28;20694;-66
2022/12/23 03:11:47;;;;;;;12.27;6.20;;;;;;;-142.25;100.00;58004.16;4962317;28;20081;-66
2022/12/23 03:14:24;;;;;;;11.63;5.70;;;;;;;-142.25;100.00;58004.16;4958925;28;20066;-66
2022/12/23 03:17:03;;;;;;;23.53;9.37;;;;;;;-142.25;100.00;58004.16;4957218;28;20474;-67
2022/12/23 03:19:51;;;;;;;13.57;8.23;;;;;;;-142.25;100.00;58004.16;4960887;28;20041;-66
2022/12/23 03:22:39;;;;;;;13.00;7.00;;;;;;;-142.25;100.00;58004.16;4963164;28;20388;-67
2022/12/23 03:25:18;;;;;;;11.50;6.73;;;;;;;-142.25;100.00;58004.16;4962140;28;20365;-66
2022/12/23 03:27:54;;;;;;;10.60;4.77;;;;;;;-142.25;100.00;58004.16;4953522;28;20505;-66
2022/12/23 03:30:22;;;;;;;11.73;4.53;;;;;;;-142.25;100.00;58004.16;4963205;28;20081;-65
2022/12/23 03:32:51;;;;;;;6.83;4.53;;;;;;;-142.25;100.00;58004.16;4962735;28;20122;-66
2022/12/23 03:35:21;;;;;;;10.73;3.93;;;;;;;-142.25;100.00;58004.16;4963809;28;20520;-66
2022/12/23 03:37:49;;;;;;;6.80;3.80;;;;;;;-142.25;100.00;58004.16;4965601;28;20047;-66
2022/12/23 03:40:37;;;;;;;9.57;3.23;;;;;;;-142.25;100.00;58004.16;4964925;28;20076;-66
2022/12/23 03:43:09;;;;;;;8.30;3.20;;;;;;;-142.25;100.00;58004.16;4979993;28;20058;-66
2022/12/23 03:45:40;;;;;;;5.13;2.67;;;;;;;-142.25;100.00;58004.16;4963831;28;20885;-66
2022/12/23 03:48:12;;;;;;;7.77;4.20;;;;;;;-142.25;100.00;58004.16;4964018;28;20497;-66
2022/12/23 03:50:41;;;;;;;9.47;4.33;;;;;;;-142.25;100.00;58004.16;4965007;28;20043;-66
2022/12/23 03:53:17;;;;;;;8.20;3.67;;;;;;;-142.25;100.00;58004.16;4965917;28;20051;-66
2022/12/23 03:55:49;;;;;;;8.83;3.77;;;;;;;-142.25;100.00;58004.16;4965021;28;20669;-67
2022/12/23 03:58:21;;;;;;;9.33;4.27;;;;;;;-142.25;100.00;58004.16;4966509;28;20462;-66
2022/12/23 04:00:55;;;;;;;8.87;3.83;;;;;;;-142.25;100.00;58004.16;4965996;28;20402;-66
2022/12/23 04:03:35;;;;;;;7.60;3.72;;;;;;;-142.25;100.00;58004.16;4964685;28;20129;-66
2022/12/23 04:06:09;;;;;;;17.20;5.20;;;;;;;-142.25;100.00;58004.16;4966267;28;20070;-66
2022/12/23 04:08:37;;;;;;;8.70;3.63;;;;;;;-142.25;100.00;58004.16;4965901;28;20401;-66
2022/12/23 04:11:04;;;;;;;9.30;3.40;;;;;;;-142.25;100.00;58004.16;4967273;28;20934;-66
2022/12/23 04:13:32;;;;;;;7.53;4.20;;;;;;;-142.25;100.00;58004.16;4968310;28;20141;-66
2022/12/23 04:15:59;;;;;;;6.37;3.30;;;;;;;-142.25;100.00;58004.16;4981017;28;20494;-65
2022/12/23 04:18:25;;;;;;;3.93;2.67;;;;;;;-142.25;100.00;58004.16;4971977;28;20034;-68
2022/12/23 04:20:51;;;;;;;13.43;3.40;;;;;;;-142.25;100.00;58004.16;4965986;28;20073;-65
2022/12/23 04:23:16;;;;;;;9.03;2.90;;;;;;;-142.25;100.00;58004.16;4959853;28;20086;-66
2022/12/23 04:25:42;;;;;;;8.17;3.40;;;;;;;-142.25;100.00;58004.16;4960539;28;20132;-65
2022/12/23 04:28:08;;;;;;;11.77;5.13;;;;;;;-142.25;100.00;58004.16;4967078;28;20038;-66
2022/12/23 04:30:34;;;;;;;11.37;5.87;;;;;;;-142.25;100.00;58004.16;4966385;28;20057;-66
2022/12/23 04:32:59;;;;;;;8.77;4.83;;;;;;;-142.25;100.00;58004.16;4963832;28;20054;-65
2022/12/23 04:35:25;;;;;;;14.87;4.13;;;;;;;-142.25;100.00;58004.16;4964177;28;20824;-66
2022/12/23 04:37:51;;;;;;;6.00;3.80;;;;;;;-142.25;100.00;58004.16;4966763;28;20062;-66
2022/12/23 04:40:16;;;;;;;7.43;3.70;;;;;;;-142.25;100.00;58004.16;4965070;28;20039;-66
2022/12/23 04:42:42;;;;;;;7.40;4.10;;;;;;;-142.25;100.00;58004.16;4966855;28;20051;-66
2022/12/23 04:45:08;;;;;;;11.43;4.57;;;;;;;-142.25;100.00;58004.16;4969503;28;20042;-67
2022/12/23 04:47:34;;;;;;;13.17;4.30;;;;;;;-142.25;100.00;58004.16;4963512;28;20039;-66
2022/12/23 04:50:00;;;;;;;8.43;3.67;;;;;;;-142.25;100.00;58004.16;4963993;28;20118;-66
2022/12/23 04:52:25;;;;;;;14.57;5.00;;;;;;;-142.25;100.00;58004.16;4967554;28;20378;-66
2022/12/23 04:54:51;;;;;;;20.20;6.03;;;;;;;-142.25;100.00;58004.16;4964848;28;20509;-65
2022/12/23 04:57:17;;;;;;;12.23;4.70;;;;;;;-142.25;100.00;58004.16;4965976;28;20047;-66
2022/12/23 04:59:43;;;;;;;14.50;4.53;;;;;;;-142.25;100.00;58004.16;4962344;28;20399;-67
2022/12/23 05:02:09;;;;;;;13.37;4.03;;;;;;;-142.25;100.00;58004.16;4970562;28;20047;-68
2022/12/23 05:04:35;;;;;;;16.07;4.47;;;;;;;-142.25;100.00;58004.16;4964596;28;20050;-67
2022/12/23 05:07:00;;;;;;;13.17;5.40;;;;;;;-142.25;100.00;58004.16;4965926;28;20478;-67
2022/12/23 05:09:26;;;;;;;17.23;5.93;;;;;;;-142.25;100.00;58004.16;4965892;28;20052;-66
2022/12/23 05:11:51;;;;;;;15.90;4.27;;;;;;;-142.25;100.00;58004.16;4963930;28;20076;-67
2022/12/23 05:14:17;;;;;;;9.57;3.50;;;;;;;-142.25;100.00;58004.16;4960915;28;20048;-66
2022/12/23 05:16:43;;;;;;;9.13;3.70;;;;;;;-142.25;100.00;58004.16;4962884;28;20043;-67
2022/12/23 05:19:10;;;;;;;10.63;4.07;;;;;;;-142.25;100.00;58004.16;4965406;28;20043;-67
2022/12/23 05:21:35;;;;;;;11.23;3.80;;;;;;;-142.25;100.00;58004.16;4982978;28;20047;-67
2022/12/23 05:24:01;;;;;;;22.83;10.60;;;;;;;-142.25;100.00;58004.16;4968758;28;20047;-68
2022/12/23 05:26:28;;;;;;;23.33;10.93;;;;;;;-142.25;100.00;58004.16;4970841;28;20057;-66
2022/12/23 05:28:54;;;;;;;27.93;10.30;;;;;;;-142.25;100.00;58004.16;4966434;28;20043;-67
2022/12/23 05:31:19;;;;;;;11.93;6.10;;;;;;;-142.25;100.00;58004.16;4968175;28;20046;-66
2022/12/23 05:33:45;;;;;;;15.50;7.50;;;;;;;-142.25;100.00;58004.16;4966668;28;20046;-66
2022/12/23 05:36:11;;;;;;;18.47;8.30;;;;;;;-142.25;100.00;58004.16;4964875;28;20074;-66
2022/12/23 05:38:37;;;;;;;12.50;5.07;;;;;;;-142.25;100.00;58004.16;4965995;28;20138;-66
2022/12/23 05:41:03;;;;;;;10.73;4.43;;;;;;;-142.25;100.00;58004.16;4962994;28;20372;-67
2022/12/23 05:43:29;;;;;;;13.73;3.90;;;;;;;-142.25;100.00;58004.16;4962404;28;20154;-68
2022/12/23 05:45:55;;;;;;;12.03;4.20;;;;;;;-142.25;100.00;58004.16;4964890;28;20130;-67
2022/12/23 05:48:21;;;;;;;32.37;14.97;;;;;;;-142.25;100.00;58004.16;4954597;28;20574;-71
2022/12/23 05:50:51;;;;;;;21.17;11.07;;;;;;;-142.25;100.00;58004.16;4980707;28;20177;-68
2022/12/23 05:53:18;;;;;;;24.17;11.20;;;;;;;-142.25;100.00;58004.16;4963157;28;20062;-67
2022/12/23 05:55:44;;;;;;;26.90;12.33;;;;;;;-142.25;100.00;58004.16;4980909;28;20046;-67
2022/12/23 05:58:10;;;;;;;17.90;9.90;;;;;;;-142.25;100.00;58004.16;4965372;28;20054;-68
2022/12/23 06:00:36;;;;;;;29.47;16.77;;;;;;;-142.25;100.00;58004.16;4968614;28;20070;-67
2022/12/23 06:03:02;;;;;;;38.40;21.97;;;;;;;-142.25;100.00;58004.16;4969172;28;20047;-68
2022/12/23 06:05:27;;;;;;;24.97;9.70;;;;;;;-142.25;100.00;58004.16;4969453;28;20508;-67
2022/12/23 06:07:53;;;;;;;24.57;9.10;;;;;;;-142.25;100.00;58004.16;4968145;28;20982;-69
2022/12/23 06:10:20;;;;;;;20.73;9.77;;;;;;;-142.25;100.00;58004.16;4971883;28;20043;-65
2022/12/23 06:12:45;;;;;;;27.63;11.17;;;;;;;-142.25;100.00;58004.16;4963478;28;20062;-71
2022/12/23 06:15:11;;;;;;;18.87;7.17;;;;;;;-142.25;100.00;58004.16;4960323;28;20685;-68
2022/12/23 06:17:37;;;;;;;15.73;5.07;;;;;;;-142.25;100.00;58004.16;4960838;28;20462;-67
2022/12/23 06:20:03;;;;;;;18.70;5.63;;;;;;;-142.25;100.00;58004.16;4960979;28;20384;-67
2022/12/23 06:22:30;;;;;;;18.73;6.23;;;;;;;-142.25;100.00;58004.16;4963023;28;20051;-68
2022/12/23 06:24:55;;;;;;;20.00;6.87;;;;;;;-142.25;100.00;58004.16;4974794;28;20035;-67
2022/12/23 06:27:21;;;;;;;21.67;7.73;;;;;;;-142.25;100.00;58004.16;4958003;28;20059;-67
2022/12/23 06:29:47;;;;;;;23.77;11.13;;;;;;;-142.25;100.00;58004.16;4960366;28;20051;-68
2022/12/23 06:32:13;;;;;;;24.20;13.27;;;;;;;-142.25;100.00;58004.16;4962642;28;20057;-67
2022/12/23 06:34:39;;;;;;;26.17;12.53;;;;;;;-142.25;100.00;58004.16;4961543;28;20118;-67
2022/12/23 06:37:05;;;;;;;21.03;9.93;;;;;;;-142.25;100.00;58004.16;4967216;28;20054;-61
2022/12/23 06:39:33;;;;;;;24.07;9.53;;;;;;;-142.25;100.00;58004.16;4965024;28;20043;-67
2022/12/23 06:41:58;;;;;;;19.40;8.40;;;;;;;-142.25;100.00;58004.16;4957025;28;20466;-67
2022/12/23 06:44:24;;;;;;;18.27;7.87;;;;;;;-142.25;100.00;58004.16;4957110;28;20074;-67
2022/12/23 06:46:50;;;;;;;18.73;9.33;;;;;;;-142.25;100.00;58004.16;4964963;28;20520;-66
2022/12/23 06:49:15;;;;;;;16.63;9.43;;;;;;;-142.25;100.00;58004.16;4960500;28;20130;-69
2022/12/23 06:51:41;;;;;;;18.30;7.90;;;;;;;-142.25;100.00;58004.16;4961186;28;20047;-65
2022/12/23 06:54:10;;;;;;;16.37;7.43;;;;;;;-142.25;100.00;58004.16;4959401;28;20050;-70
2022/12/23 06:56:36;;;;;;;17.20;7.60;;;;;;;-142.25;100.00;58004.16;4962456;28;20181;-69
2022/12/23 06:59:02;;;;;;;26.63;10.60;;;;;;;-142.25;100.00;58004.16;4960520;28;20045;-69
2022/12/23 07:01:28;;;;;;;16.37;8.73;;;;;;;-142.25;100.00;58004.16;4957862;28;20434;-69
2022/12/23 07:03:53;;;;;;;22.77;10.40;;;;;;;-142.25;100.00;58004.16;4958684;28;20093;-69
2022/12/23 07:06:19;;;;;;;27.77;11.37;;;;;;;-142.25;100.00;58004.16;4962899;28;20117;-68
2022/12/23 07:08:45;;;;;;;26.43;10.57;;;;;;;-142.25;100.00;58004.16;4959970;28;20149;-69
2022/12/23 07:11:10;;;;;;;28.60;12.10;;;;;;;-142.25;100.00;58004.16;4965214;28;20042;-69
2022/12/23 07:13:36;;;;;;;43.30;18.97;;;;;;;-142.25;100.00;58004.16;4961921;28;20069;-69
2022/12/23 07:16:06;;;;;;;42.20;23.23;;;;;;;-142.25;100.00;58004.16;4962897;28;20454;-69
2022/12/23 07:18:32;;;;;;;45.57;27.37;;;;;;;-142.25;100.00;58004.16;4963154;28;20454;-68
2022/12/23 07:20:59;;;;;;;36.03;18.57;;;;;;;-142.25;100.00;58004.16;4966596;28;20043;-69
2022/12/23 07:23:25;;;;;;;34.17;18.73;;;;;;;-142.25;100.00;58004.16;4969418;28;20078;-67
2022/12/23 07:25:51;;;;;;;26.87;12.97;;;;;;;-142.25;100.00;58004.16;4967357;28;20100;-67
2022/12/23 07:28:17;;;;;;;22.97;11.83;;;;;;;-142.25;100.00;58004.16;4968570;28;20049;-68
2022/12/23 07:30:43;;;;;;;23.00;12.60;;;;;;;-142.25;100.00;58004.16;4967713;28;20050;-68
2022/12/23 07:33:09;;;;;;;59.93;37.43;;;;;;;-142.25;100.00;58004.16;4966963;28;20488;-68
2022/12/23 07:35:35;;;;;;;37.30;25.20;;;;;;;-142.25;100.00;58004.16;4969549;28;20527;-67
2022/12/23 07:38:00;;;;;;;56.57;35.80;;;;;;;-142.25;100.00;58004.16;4965599;28;20125;-67
2022/12/23 07:40:26;;;;;;;53.70;33.73;;;;;;;-142.25;100.00;58004.16;4967678;28;20132;-66
2022/12/23 07:42:57;;;;;;;29.23;18.00;;;;;;;-142.25;100.00;58004.16;4967789;28;20058;-67
2022/12/23 07:45:24;;;;;;;21.20;14.07;;;;;;;-142.25;100.00;58004.16;4964649;28;20171;-67
2022/12/23 07:47:54;;;;;;;34.30;18.73;;;;;;;-142.25;100.00;58004.16;4965867;28;20050;-68
2022/12/23 07:50:21;;;;;;;28.63;17.03;;;;;;;-142.25;100.00;58004.16;4967470;28;20047;-66
2022/12/23 07:52:46;;;;;;;19.87;13.87;;;;;;;-142.25;100.00;58004.16;4966842;28;20057;-67
2022/12/23 07:55:12;;;;;;;20.70;12.57;;;;;;;-142.25;100.00;58004.16;4969788;28;20058;-67
2022/12/23 07:57:39;;;;;;;17.40;10.93;;;;;;;-142.25;100.00;58004.16;4965494;28;20105;-66
2022/12/23 08:00:13;;;;;;;24.37;14.30;;;;;;;-142.25;100.00;58004.16;4966749;28;20138;-67
2022/12/23 08:02:39;;;;;;;19.53;13.33;;;;;;;-142.25;100.00;58004.16;4966841;28;20141;-67
2022/12/23 08:05:05;;;;;;;23.07;13.23;;;;;;;-142.25;100.00;58004.16;4968329;28;20533;-67
2022/12/23 08:07:31;;;;;;;20.93;12.60;;;;;;;-142.25;100.00;58004.16;4965575;28;20062;-67
2022/12/23 08:09:57;;;;;;;18.30;12.37;;;;;;;-142.25;100.00;58004.16;4967296;28;20134;-67
2022/12/23 08:12:24;;;;;;;17.87;12.57;;;;;;;-142.25;100.00;58004.16;4966877;28;20499;-67
2022/12/23 08:14:51;;;;;;;19.23;13.00;;;;;;;-142.25;100.00;58004.16;4967148;28;20069;-67
2022/12/23 08:17:20;;;;;;;18.97;12.70;;;;;;;-142.25;100.00;58004.16;4968230;28;20043;-66
2022/12/23 08:19:46;;;;;;;16.70;12.17;;;;;;;-142.25;100.00;58004.16;4969877;28;20049;-67
2022/12/23 08:22:12;;;;;;;17.23;12.73;;;;;;;-142.25;100.00;58004.16;4958872;28;20054;-61
2022/12/23 08:24:38;;;;;;;23.10;13.97;;;;;;;-142.25;100.00;58004.16;4960400;28;20175;-68
2022/12/23 08:27:04;;;;;;;21.10;15.57;;;;;;;-142.25;100.00;58004.16;4960388;28;20093;-68
2022/12/23 08:29:30;;;;;;;23.57;16.60;;;;;;;-142.25;100.00;58004.16;4965034;28;20051;-71
2022/12/23 08:31:56;;;;;;;21.83;14.20;;;;;;;-142.25;100.00;58004.16;4963179;28;20047;-61
2022/12/23 08:34:21;;;;;;;24.70;17.07;;;;;;;-142.25;100.00;58004.16;4960625;28;20046;-67
2022/12/23 08:36:47;;;;;;;22.87;15.73;;;;;;;-142.25;100.00;58004.16;4965561;28;20073;-65
2022/12/23 08:39:13;;;;;;;24.23;15.10;;;;;;;-142.25;100.00;58004.16;4960823;28;20049;-66
2022/12/23 08:41:43;;;;;;;23.53;16.20;;;;;;;-142.25;100.00;58004.16;4965582;28;20180;-67
2022/12/23 08:44:09;;;;;;;27.97;18.47;;;;;;;-142.25;100.00;58004.16;4960097;28;20082;-66
2022/12/23 08:46:35;;;;;;;22.50;16.50;;;;;;;-142.25;100.00;58004.16;4958041;28;20304;-66
2022/12/23 08:49:02;;;;;;;25.80;16.83;;;;;;;-142.25;100.00;58004.16;4966705;28;20043;-64
2022/12/23 08:51:27;;;;;;;22.87;15.97;;;;;;;-142.25;100.00;58004.16;4965865;28;20045;-65
2022/12/23 08:53:56;;;;;;;22.93;15.03;;;;;;;-142.25;100.00;58004.16;4961494;28;20047;-66
2022/12/23 08:56:24;;;;;;;24.57;15.57;;;;;;;-142.25;100.00;58004.16;4965309;28;20043;-66
2022/12/23 08:58:52;;;;;;;23.50;17.10;;;;;;;-142.25;100.00;58004.16;4963807;28;20045;-65
2022/12/23 09:01:20;;;;;;;26.47;18.40;;;;;;;-142.25;100.00;58004.16;4966851;28;20074;-65
2022/12/23 09:03:46;;;;;;;26.70;18.40;;;;;;;-142.25;100.00;58004.16;4964557;28;20062;-65
2022/12/23 09:06:15;;;;;;;25.97;18.47;;;;;;;-142.25;100.00;58004.16;4960802;28;20102;-62
2022/12/23 09:08:41;;;;;;;25.27;17.50;;;;;;;-142.25;100.00;58004.16;4955786;28;20612;-65
2022/12/23 09:11:16;;;;;;;25.70;17.30;;;;;;;-142.25;100.00;58004.16;4952596;28;20138;-67
2022/12/23 09:13:45;;;;;;;;;;;;;;;-142.25;100.00;58004.16;4961083;28;20148;-68
2022/12/23 09:16:12;;;;;;;27.10;17.80;;;;;;;-142.25;100.00;58004.16;4963944;28;19922;-67
2022/12/23 09:18:38;;;;;;;26.73;17.20;;;;;;;-142.25;100.00;58004.16;4964466;28;20046;-65
2022/12/23 09:21:06;;;;;;;23.90;17.00;;;;;;;-142.25;100.00;58004.16;4963234;28;20457;-65
2022/12/23 09:23:32;;;;;;;21.67;15.10;;;;;;;-142.25;100.00;58004.16;4976496;28;20208;-65
2022/12/23 09:25:58;;;;;;;22.43;15.53;;;;;;;-142.25;100.00;58004.16;4964962;28;20046;-64
2022/12/23 09:28:25;;;;;;;22.40;16.97;;;;;;;-142.25;100.00;58004.16;4963672;28;20478;-65
2022/12/23 09:30:51;;;;;;;23.67;17.87;;;;;;;-142.25;100.00;58004.16;4962335;28;20146;-66
2022/12/23 09:33:18;;;;;;;21.00;16.88;;;;;;;-142.25;100.00;58004.16;4963397;28;20051;-66
2022/12/23 09:35:44;;;;;;;22.67;17.40;;;;;;;-142.25;100.00;58004.16;4967148;28;20055;-66
2022/12/23 09:38:11;;;;;;;25.83;18.33;;;;;;;-142.25;100.00;58004.16;4961109;28;20500;-66
2022/12/23 09:40:38;;;;;;;29.70;20.80;;;;;;;-142.25;100.00;58004.16;4964144;28;20071;-65
2022/12/23 09:43:21;;;;;;;18.73;14.63;;;;;;;-142.25;100.00;58004.16;4963029;28;20114;-69
2022/12/23 09:45:54;;;;;;;23.08;15.02;;;;;;;-142.25;100.00;58004.16;4962070;28;20039;-65
2022/12/23 09:48:25;;;;;;;21.10;15.27;;;;;;;-142.25;100.00;58004.16;4962353;28;20038;-67
2022/12/23 09:50:51;;;;;;;19.47;14.87;;;;;;;-142.25;100.00;58004.16;4976083;28;20043;-65
2022/12/23 09:53:21;;;;;;;20.23;15.47;;;;;;;-142.25;100.00;58004.16;4975486;28;20039;-64
2022/12/23 09:55:56;;;;;;;22.57;15.60;;;;;;;-142.25;100.00;58004.16;4965609;28;20047;-65
2022/12/23 09:58:42;;;;;;;22.95;15.70;;;;;;;-142.25;100.00;58004.16;4964258;28;20530;-65
2022/12/23 10:01:30;;;;;;;19.50;15.43;;;;;;;-142.25;100.00;58004.16;4963343;28;20066;-66
2022/12/23 10:04:21;;;;;;;22.73;15.10;;;;;;;-142.25;100.00;58004.16;4957016;28;20043;-66
2022/12/23 10:06:55;;;;;;;20.80;14.23;;;;;;;-142.25;100.00;58004.16;4959145;28;20039;-61
2022/12/23 10:09:20;;;;;;;17.60;14.43;;;;;;;-142.25;100.00;58004.16;4958941;28;20068;-64
2022/12/23 10:11:48;;;;;;;20.92;13.32;;;;;;;-142.25;100.00;58004.16;4956747;28;20039;-63
2022/12/23 10:14:24;;;;;;;18.15;13.07;;;;;;;-142.25;100.00;58004.16;4959560;28;20926;-64
2022/12/23 10:17:11;;;;;;;21.65;14.20;;;;;;;-142.25;100.00;58004.16;4959318;28;20360;-65
2022/12/23 10:19:41;;;;;;;21.63;16.17;;;;;;;-142.25;100.00;58004.16;4958614;28;20158;-65
2022/12/23 10:22:25;;;;;;;20.13;14.17;;;;;;;-142.25;100.00;58004.16;4963590;28;20093;-64
2022/12/23 10:24:54;;;;;;;22.90;15.13;;;;;;;-142.25;100.00;58004.16;4964706;28;20551;-64
2022/12/23 10:27:28;;;;;;;23.40;14.80;;;;;;;-142.25;100.00;58004.16;4962246;28;20399;-64
2022/12/23 10:29:55;;;;;;;21.17;15.57;;;;;;;-142.25;100.00;58004.16;4976145;28;20056;-64
2022/12/23 10:32:42;;;;;;;17.23;12.70;;;;;;;-142.25;100.00;58004.16;4962204;28;20550;-65
2022/12/23 10:35:30;;;;;;;16.85;13.15;;;;;;;-142.25;100.00;58004.16;4962513;28;20047;-66
2022/12/23 10:38:14;;;;;;;18.63;12.90;;;;;;;-142.25;100.00;58004.16;4960367;28;20501;-66
2022/12/23 10:41:10;;;;;;;18.98;14.13;;;;;;;-142.25;100.00;58004.16;4965213;28;20101;-66
2022/12/23 10:43:58;;;;;;;17.95;12.82;;;;;;;-142.25;100.00;58004.16;4960520;28;20047;-66
2022/12/23 10:47:14;;;;;;;15.88;12.23;;;;;;;-142.25;100.00;58004.16;4962498;28;20077;-65
2022/12/23 10:50:13;;;;;;;18.45;13.30;;;;;;;-142.25;100.00;58004.16;4925021;29;20047;-66
2022/12/23 10:52:43;;;;;;;17.45;12.30;;;;;;;-142.25;100.00;58004.16;4924848;29;20079;-67
2022/12/23 10:55:37;;;;;;;17.80;12.00;;;;;;;-142.25;100.00;58004.16;4922536;29;20052;-65
2022/12/23 10:58:08;;;;;;;22.67;13.35;;;;;;;-142.25;100.00;58004.16;4923881;29;20058;-67
2022/12/23 11:00:38;;;;;;;20.70;13.32;;;;;;;-142.25;100.00;58004.16;4924991;29;20091;-64
2022/12/23 11:03:17;;;;;;;19.15;12.57;;;;;;;-142.25;100.00;58004.16;4925430;29;20122;-68
2022/12/23 11:05:44;;;;;;;17.42;11.45;;;;;;;-142.25;100.00;58004.16;4923457;29;20150;-69
2022/12/23 11:08:11;;;;;;;15.23;11.65;;;;;;;-142.25;100.00;58004.16;4921282;29;20292;-64
2022/12/23 11:10:38;;;;;;;15.05;13.30;;;;;;;-142.25;100.00;58004.16;4921495;29;20086;-68
2022/12/23 11:13:04;;;;;;;15.35;11.15;;;;;;;-142.25;100.00;58004.16;4925687;29;20059;-67
2022/12/23 11:15:38;;;;;;;14.38;10.82;;;;;;;-142.25;100.00;58004.16;4926496;29;20130;-63
2022/12/23 11:18:16;;;;;;;15.73;10.90;;;;;;;-142.25;100.00;58004.16;4923177;29;20858;-62
2022/12/23 11:20:44;;;;;;;16.60;12.07;;;;;;;-142.25;100.00;58004.16;4923050;29;20051;-68
2022/12/23 11:23:26;;;;;;;15.88;11.77;;;;;;;-142.25;100.00;58004.16;4936058;28;20069;-67
2022/12/23 11:26:16;;;;;;;14.55;11.00;;;;;;;-142.25;100.00;58004.16;4963360;28;20175;-67
2022/12/23 11:28:58;;;;;;;13.73;10.95;;;;;;;-142.25;100.00;58004.16;4961183;28;20038;-68
2022/12/23 11:31:32;;;;;;;14.88;11.63;;;;;;;-142.25;100.00;58004.16;4960429;28;20094;-68
2022/12/23 11:34:00;;;;;;;15.13;12.30;;;;;;;-142.25;100.00;58004.16;4960276;28;20399;-69
2022/12/23 11:36:29;;;;;;;13.10;11.48;;;;;;;-142.25;100.00;58004.16;4960531;28;20046;-67